Terminal Aerodrome Forecast
Issued by NWS Albany, NY

Home | Current Version | Previous Version | Text Only | Print | Product List | Glossary On
Versions: 1 2 3 4 5 6 7 8 9 10 11 12 13 14 15 16 17 18 19 20 21 22
000
FTUS41 KALY 071724
TAFALB
TAF
KALB 071724Z 0718/0818 VRB04KT P6SM SKC
     FM072300 VRB03KT P6SM SCT200
     FM080900 05005KT P6SM SCT100 OVC200
     FM081500 03009KT P6SM OVC100=

USA.gov is the U.S. government's official web portal to all federal, state and local government web resources and services.